Gent, België

8:12 PM CEST op 28 april 2015 (GMT +0200)
Wachtebeke Belgisch/Nederlandse grens | | Change Station
CLOSE
Current Station
Persoonlijk weerstation
Location: Wachtebeke, VLAAMS GEWEST
Geometrische hoogte: 16 ft
Nabije weerstations

Hoogte 16 ft 51.17 °N, 3.86 °E | Updated 26 seconds ago

Clear
Helder
53.6 °F
Voelt als 53.6 °F
N
3.4
Wind Variabel Wind van NNW
Gusts 4.9 mijl/u

Vandaag
Hoog -- | Laag -- °F
--% Kans op neerslag
Gisteren
Hoog -- | Laag -- °F
Precip. -- inches
6:24 AM 9:01 PM
Wassende maan, 75% visible
Druk 30.09 inches
Zicht 6.2 mijlen
Wolken
Dauwpunt 32 °F
Vochtigheid 43%
Neerslag 0.00 inches
Dikte sneeuw Niet beschikbaar.
UV 1.0 van de 12
Pollen Niet beschikbaar.
Luchtkwaliteit Niet beschikbaar.
Flu Activity Niet beschikbaar.
SPECI EHWO 281807Z AUTO 28007KT 9999 NCD 10/M03 Q1019 BLU

More Conditions Fewer Conditions

Druk 30.09 inches
Zicht 6.2 mijlen
Wolken
Dauwpunt 32 °F
Vochtigheid 43%
Neerslag 0.00 inches
Dikte sneeuw Niet beschikbaar.
UV 1.0 van de 12
Pollen Niet beschikbaar.
Luchtkwaliteit Niet beschikbaar.
Flu Activity Niet beschikbaar.
SPECI EHWO 281807Z AUTO 28007KT 9999 NCD 10/M03 Q1019 BLU

More Conditions Fewer Conditions

10-Day Weather Forecast

Almanac

Astronomie

Apr. 28, 2015 Opkomst Ondergang
Werkelijke tijd
Burgerlijke schemering
Nautische schemering
Astronomische schemering
Maan
Golflengte van het zichtbare licht
Daglengte
Tomorrow will be .
, % of the Moon is Illuminated

Extremen vandaag

Country Highs Country Lows

Community

WunderPhotos

Upload Photos

1,817,719 foto’s ge-upload!

WunderBlogs® & News

Nearby

Luchtkwaliteit

  Luchtkwaliteit LK-index Verontreinigende stof
Not available.

Dikte sneeuw

Station Depth Geometrische hoogte

Aardbevingen

Stad Distance Mag. Time & Date
Minimum magnitude displayed is 2.5.

Watertemperatuur langs de kust

Plaats Temperatuur

Stations

Nabije weerstations

Locatie station Temp. Gevoelstemperatuur Dauwpunt Vochtigheid Wind Precip. Hoogte Geactualiseerd Type